Hovedside
METAR-TAF:

METAR-TAF

Lufthavner :

Norne Fpso, Norge

Oljeplattform

breddegrad: 66-01-48N, lengdegrad: 008-04-48E, høyde over havet: 10 m

Gjeldene værobservasjon

Denne rapporten ble laget for 28 minutter siden, klokken 18:50 UTC
Vind 23 kt fra Sør-sørøst
Temperatur 8°C
Luftfuktighet 100%
Trykk 1009 hPa
Sikt: 0250 m
lett regn, tåke

METAR: ENNE 271850Z AUTO 15023KT 0250NDV -RA FG NCD 08/08 Q1009 W///S4

Tid: 21:18 (19:18 UTC)

Varsel

Denne rapporten ble laget for 8 timer og 18 minutter siden, klokken 11:00 UTC
Varsel gyldig fra 27. klokken 12 UTC til 27. klokken 17 UTC
Vind 18 kt fra Øst
Sikt 10 km eller mer
Spredte skyer i en høyde av 500 ft
Brutte skyer i en høyde av 1500 ft
lett regn
Sannsynlighet 40%
fra 27. klokken 12 UTC til 27. klokken 17 UTC
Sikt: 2000 m
Brutte skyer i en høyde av 400 ft
regn, duskregn

TAF: ENNE 271100Z 2712/2717 10018KT 9999 -RA SCT005 BKN015 PROB40 2712/2717 2000 RADZ BKN004

Værobservasjoner og værvarsel for over 4000 flyplasser (METAR- og TAF-rapporter).

Tilgjengelige stasjoner er representert av de røde og gule prikkene på kartet.

Hold musepekeren over prikken for å se navnet på stasjonen.

Klikk så for å se værobservasjoner og -varsler.

For å forandre kartet kan du klikke på den grønne knappen med svart kryss for å zoome inn, på den grønne knappen med strek for å zoome ut, eller på de grønne pilene for å se tilstøtende kart.


METAR-TAF: